Corfu, Greece
Current Conditions -  °F | °C
As of 3:50 AM on Thursday 27 Nov 2014 (Local Time) from LGKR Reporting Station
Light Rain Light Rain  
Wind Chill: 57°   Ceiling: 3000
Heat Index: 57°   Visibility: 4mi
Dew Point: 55°   Wind: 5mph
Humidity: 94%   Direction: 130°SE
Pressure: 30.03"   Gusts: NA
Location:  39.62°N, 19.92°E
Report Text: LGKR 270150Z 13004KT 7000 -RA FEW025TCU BKN030 OVC080 14/13 Q1017 BECMG 5000 RA
Loading
Personal Weather Stations






























Interactive Weather Map New forecast layout! Learn more

10-Day Weather Forecast

Advertisements
Track Severe Weather on mobile